createdAt,value
2018-05-27T00:00:29.191Z,71.40
2018-05-27T00:05:31.699Z,71.80
2018-05-27T00:10:34.215Z,72.60
2018-05-27T00:15:36.728Z,71.70
2018-05-27T00:20:39.248Z,72.20
2018-05-27T00:25:41.769Z,72.10
2018-05-27T00:30:44.288Z,72.80
2018-05-27T00:35:46.813Z,72.70
2018-05-27T00:40:49.321Z,73.30
2018-05-27T00:45:51.828Z,72.90
2018-05-27T00:50:54.369Z,72.70
2018-05-27T00:55:56.890Z,73.40
2018-05-27T01:01:00.908Z,73.20
2018-05-27T01:06:03.429Z,73.10
2018-05-27T01:11:05.940Z,73.30
2018-05-27T01:16:08.457Z,73.10
2018-05-27T01:21:10.997Z,73.00
2018-05-27T01:26:13.504Z,73.50
2018-05-27T01:31:16.032Z,73.70
2018-05-27T01:36:18.540Z,73.80
2018-05-27T01:41:21.059Z,73.60
2018-05-27T01:46:23.580Z,73.40
2018-05-27T01:51:26.096Z,73.50
2018-05-27T01:56:28.671Z,74.00
2018-05-27T02:01:31.192Z,74.10
2018-05-27T02:06:34.480Z,74.00
2018-05-27T02:11:37.006Z,74.00
2018-05-27T02:16:40.451Z,74.20
2018-05-27T02:21:42.964Z,74.00
2018-05-27T02:26:45.556Z,74.80
2018-05-27T02:31:48.152Z,74.40
2018-05-27T02:36:50.694Z,74.60
2018-05-27T02:41:53.204Z,74.50
2018-05-27T02:46:55.757Z,74.40
2018-05-27T02:51:58.279Z,74.50
2018-05-27T02:57:00.807Z,75.00
2018-05-27T03:02:03.342Z,75.00
2018-05-27T03:07:05.873Z,75.00
2018-05-27T03:12:08.405Z,74.80
2018-05-27T03:17:10.924Z,75.10
2018-05-27T03:22:13.436Z,75.30
2018-05-27T03:27:15.957Z,75.60
2018-05-27T03:32:18.471Z,75.40
2018-05-27T03:37:20.995Z,75.60
2018-05-27T03:42:23.504Z,76.00
2018-05-27T03:47:26.016Z,75.50
2018-05-27T03:52:28.530Z,76.60
2018-05-27T03:57:31.036Z,76.60
2018-05-27T04:02:33.587Z,76.80
2018-05-27T04:07:48.664Z,76.90
2018-05-27T04:12:51.177Z,76.80
2018-05-27T04:17:53.692Z,77.40
2018-05-27T04:22:56.212Z,77.60
2018-05-27T04:27:58.728Z,77.40
2018-05-27T04:33:01.260Z,77.60
2018-05-27T04:38:03.785Z,78.20
2018-05-27T04:43:06.300Z,79.10
2018-05-27T04:48:08.816Z,78.80
2018-05-27T04:53:11.339Z,78.10
2018-05-27T04:58:13.857Z,78.10
2018-05-27T05:03:16.381Z,77.50
2018-05-27T05:08:18.900Z,78.50
2018-05-27T05:13:21.404Z,77.70
2018-05-27T05:18:23.928Z,78.00
2018-05-27T05:23:26.444Z,77.80
2018-05-27T05:28:29.731Z,78.70
2018-05-27T05:33:32.245Z,78.60
2018-05-27T05:38:34.764Z,78.80
2018-05-27T05:43:37.281Z,79.00
2018-05-27T05:48:39.795Z,79.30
2018-05-27T05:53:42.300Z,78.60
2018-05-27T05:58:44.858Z,78.30
2018-05-27T06:03:47.410Z,79.30
2018-05-27T06:08:49.952Z,77.80
2018-05-27T06:13:52.496Z,76.50
2018-05-27T06:18:55.069Z,76.70
2018-05-27T06:23:57.642Z,76.50
2018-05-27T06:29:00.168Z,75.60
2018-05-27T06:34:03.308Z,74.70
2018-05-27T06:39:09.568Z,73.70
2018-05-27T06:44:12.270Z,72.30
2018-05-27T06:49:15.033Z,72.30
2018-05-27T06:54:17.592Z,72.70
2018-05-27T06:59:20.203Z,71.40
2018-05-27T07:04:22.777Z,70.20
2018-05-27T07:09:26.092Z,69.50
2018-05-27T07:14:29.308Z,69.50
2018-05-27T07:19:36.212Z,69.10
2018-05-27T07:24:40.157Z,68.40
2018-05-27T07:29:42.694Z,67.50
2018-05-27T07:34:45.204Z,66.60
2018-05-27T07:39:47.716Z,65.60
2018-05-27T07:44:50.231Z,64.80
2018-05-27T07:49:52.786Z,64.10
2018-05-27T07:54:55.300Z,62.80
2018-05-27T07:59:58.606Z,61.30
2018-05-27T08:05:01.206Z,61.00
2018-05-27T08:10:03.716Z,61.20
2018-05-27T08:15:06.247Z,60.90
2018-05-27T08:20:11.830Z,60.70
2018-05-27T08:25:14.394Z,59.60
2018-05-27T08:30:16.996Z,58.70
2018-05-27T08:35:19.576Z,58.10
2018-05-27T08:40:22.142Z,56.60
2018-05-27T08:45:24.789Z,57.00
2018-05-27T08:50:27.372Z,57.00
2018-05-27T08:55:29.924Z,55.60
2018-05-27T09:00:32.557Z,55.60
2018-05-27T09:05:35.130Z,55.70
2018-05-27T09:10:37.689Z,54.50
2018-05-27T09:15:40.259Z,54.80
2018-05-27T09:20:42.849Z,54.60
2018-05-27T09:25:45.432Z,54.80
2018-05-27T09:30:47.984Z,54.30
2018-05-27T09:35:50.574Z,54.60
2018-05-27T09:40:53.143Z,54.30
2018-05-27T09:45:55.693Z,53.80
2018-05-27T09:50:58.292Z,54.20
2018-05-27T09:56:00.854Z,54.70
2018-05-27T10:01:03.388Z,53.90
2018-05-27T10:06:06.058Z,53.80
2018-05-27T10:11:08.609Z,53.40
2018-05-27T10:16:11.226Z,52.60
2018-05-27T10:21:13.885Z,50.80
2018-05-27T10:26:16.422Z,50.20
2018-05-27T10:31:18.975Z,49.80
2018-05-27T10:36:22.317Z,49.10
2018-05-27T10:41:24.929Z,49.10
2018-05-27T10:46:27.557Z,49.60
2018-05-27T10:51:30.433Z,48.90
2018-05-27T10:56:33.102Z,48.30
2018-05-27T11:01:35.724Z,47.60
2018-05-27T11:06:38.228Z,48.20
2018-05-27T11:11:40.805Z,48.70
2018-05-27T11:16:43.379Z,49.40
2018-05-27T11:21:46.130Z,48.00
2018-05-27T11:26:49.567Z,48.80
2018-05-27T11:31:52.250Z,48.00
2018-05-27T11:36:54.854Z,48.50
2018-05-27T11:41:57.433Z,47.70
2018-05-27T11:46:59.973Z,46.40
2018-05-27T11:52:02.630Z,46.30
2018-05-27T11:57:10.210Z,46.80
2018-05-27T12:02:14.981Z,46.00
2018-05-27T12:07:19.594Z,46.90
2018-05-27T12:12:23.089Z,46.40
2018-05-27T12:17:25.627Z,46.10
2018-05-27T12:22:28.977Z,45.50
2018-05-27T12:27:31.580Z,45.50
2018-05-27T12:32:34.127Z,45.00
2018-05-27T12:37:36.731Z,45.00
2018-05-27T12:42:40.331Z,44.50
2018-05-27T12:47:42.961Z,43.80
2018-05-27T12:52:45.486Z,41.80
2018-05-27T12:57:48.071Z,42.40
2018-05-27T13:02:52.041Z,42.00
2018-05-27T13:07:54.703Z,42.20
2018-05-27T13:12:57.299Z,43.10
2018-05-27T13:17:59.946Z,42.90
2018-05-27T13:23:02.563Z,42.50
2018-05-27T13:28:05.154Z,42.40
2018-05-27T13:33:08.745Z,41.80
2018-05-27T13:38:11.435Z,42.30
2018-05-27T13:43:14.103Z,42.40
2018-05-27T13:48:16.719Z,43.00
2018-05-27T13:53:19.379Z,42.00
2018-05-27T13:58:22.312Z,41.00
2018-05-27T14:03:25.071Z,39.70
2018-05-27T14:08:27.672Z,40.10
2018-05-27T14:13:30.300Z,40.30
2018-05-27T14:18:33.199Z,41.50
2018-05-27T14:23:35.745Z,39.90
2018-05-27T14:28:38.310Z,39.10
2018-05-27T14:33:41.002Z,39.60
2018-05-27T14:38:43.634Z,40.40
2018-05-27T14:43:46.165Z,41.00
2018-05-27T14:48:48.706Z,40.20
2018-05-27T14:53:51.266Z,41.00
2018-05-27T14:58:53.799Z,41.10
2018-05-27T15:03:56.328Z,41.30
2018-05-27T15:09:00.601Z,41.60
2018-05-27T15:14:03.294Z,41.20
2018-05-27T15:19:05.876Z,40.50
2018-05-27T15:24:08.421Z,40.90
2018-05-27T15:29:11.118Z,40.60
2018-05-27T15:34:13.678Z,40.70
2018-05-27T15:39:16.249Z,40.60
2018-05-27T15:44:22.207Z,39.90
2018-05-27T15:49:26.359Z,40.60
2018-05-27T15:54:29.133Z,39.10
2018-05-27T15:59:31.750Z,38.80
2018-05-27T16:04:37.179Z,38.60
2018-05-27T16:09:40.568Z,39.60
2018-05-27T16:14:43.191Z,39.60
2018-05-27T16:19:47.444Z,38.90
2018-05-27T16:24:50.005Z,38.90
2018-05-27T16:29:53.121Z,39.20
2018-05-27T16:34:55.705Z,38.90
2018-05-27T16:39:58.272Z,39.60
2018-05-27T16:45:00.798Z,39.90
2018-05-27T16:50:03.320Z,39.70
2018-05-27T16:55:05.832Z,40.20
2018-05-27T17:00:08.450Z,40.30
2018-05-27T17:05:10.940Z,40.80
2018-05-27T17:10:13.458Z,41.00
2018-05-27T17:15:15.977Z,41.20
2018-05-27T17:20:18.492Z,41.60
2018-05-27T17:25:21.032Z,41.90
2018-05-27T17:30:23.536Z,42.30
2018-05-27T17:35:26.055Z,43.20
2018-05-27T17:40:28.575Z,44.00
2018-05-27T17:45:31.088Z,45.30
2018-05-27T17:50:33.605Z,45.60
2018-05-27T17:55:36.124Z,45.70
2018-05-27T18:00:38.662Z,45.70
2018-05-27T18:05:41.180Z,46.00
2018-05-27T18:10:43.695Z,46.40
2018-05-27T18:15:46.217Z,46.90
2018-05-27T18:20:48.752Z,46.60
2018-05-27T18:25:51.281Z,47.20
2018-05-27T18:30:53.812Z,47.60
2018-05-27T18:35:57.096Z,47.30
2018-05-27T18:40:59.612Z,47.30
2018-05-27T18:46:02.128Z,47.80
2018-05-27T18:51:04.667Z,48.50
2018-05-27T18:56:07.172Z,48.80
2018-05-27T19:01:09.710Z,49.30
2018-05-27T19:06:13.009Z,50.60
2018-05-27T19:11:15.530Z,50.50
2018-05-27T19:16:18.829Z,51.80
2018-05-27T19:21:21.337Z,51.70
2018-05-27T19:26:25.361Z,52.50
2018-05-27T19:31:27.883Z,52.50
2018-05-27T19:36:30.399Z,52.90
2018-05-27T19:41:32.951Z,53.00
2018-05-27T19:46:35.509Z,53.10
2018-05-27T19:51:38.024Z,53.20
2018-05-27T19:56:40.544Z,53.00
2018-05-27T20:01:43.139Z,53.10
2018-05-27T20:06:45.688Z,53.60
2018-05-27T20:11:48.222Z,53.80
2018-05-27T20:16:50.756Z,54.30
2018-05-27T20:21:54.033Z,54.90
2018-05-27T20:26:56.557Z,54.90
2018-05-27T20:31:59.082Z,55.20
2018-05-27T20:37:01.600Z,55.50
2018-05-27T20:42:04.129Z,56.20
2018-05-27T20:47:06.660Z,56.70
2018-05-27T20:52:09.951Z,57.50
2018-05-27T20:57:12.472Z,57.50
2018-05-27T21:02:15.764Z,58.10
2018-05-27T21:07:18.288Z,58.10
2018-05-27T21:12:20.807Z,58.30
2018-05-27T21:17:23.332Z,58.60
2018-05-27T21:22:25.865Z,58.70
2018-05-27T21:27:28.380Z,58.90
2018-05-27T21:32:30.905Z,59.10
2018-05-27T21:37:33.615Z,59.30
2018-05-27T21:42:36.140Z,59.50
2018-05-27T21:47:38.677Z,59.70
2018-05-27T21:52:41.217Z,60.10
2018-05-27T21:57:43.720Z,60.20
2018-05-27T22:02:46.242Z,60.20
2018-05-27T22:07:48.764Z,60.00
2018-05-27T22:12:51.285Z,60.30
2018-05-27T22:17:53.804Z,60.00
2018-05-27T22:22:56.323Z,60.60
2018-05-27T22:27:58.842Z,60.80
2018-05-27T22:33:01.356Z,61.00
2018-05-27T22:38:03.880Z,61.30
2018-05-27T22:43:06.408Z,61.50
2018-05-27T22:48:08.928Z,62.10
2018-05-27T22:53:11.560Z,62.30
2018-05-27T22:58:14.064Z,62.30
2018-05-27T23:03:16.593Z,62.80
2018-05-27T23:08:19.104Z,63.00
2018-05-27T23:13:21.621Z,63.40
2018-05-27T23:18:24.140Z,63.40
2018-05-27T23:23:26.665Z,63.60
2018-05-27T23:28:29.943Z,64.10
2018-05-27T23:33:32.475Z,64.10
2018-05-27T23:38:35.004Z,64.20
2018-05-27T23:43:37.528Z,64.60
2018-05-27T23:48:40.054Z,65.20
2018-05-27T23:53:42.557Z,65.00
2018-05-27T23:58:45.844Z,65.30
